sensor_id;sensor_type;location;lat;lon;timestamp;temperature;humidity
7155;DHT22;3619;53.784;10.440;2024-03-23T00:55:39;5.50;99.90
7155;DHT22;3619;53.784;10.440;2024-03-23T00:58:07;5.50;99.90
7155;DHT22;3619;53.784;10.440;2024-03-23T01:00:33;5.50;99.90
7155;DHT22;3619;53.784;10.440;2024-03-23T01:03:01;5.50;99.90
7155;DHT22;3619;53.784;10.440;2024-03-23T01:05:27;5.50;99.90
7155;DHT22;3619;53.784;10.440;2024-03-23T01:07:54;5.50;99.90
7155;DHT22;3619;53.784;10.440;2024-03-23T01:10:20;5.50;99.90
7155;DHT22;3619;53.784;10.440;2024-03-23T01:12:50;5.40;99.90
7155;DHT22;3619;53.784;10.440;2024-03-23T01:15:17;5.40;99.90
7155;DHT22;3619;53.784;10.440;2024-03-23T01:17:44;5.30;99.90
7155;DHT22;3619;53.784;10.440;2024-03-23T01:20:21;5.30;99.90
7155;DHT22;3619;53.784;10.440;2024-03-23T01:22:52;5.20;99.90
7155;DHT22;3619;53.784;10.440;2024-03-23T01:25:22;5.20;99.90
7155;DHT22;3619;53.784;10.440;2024-03-23T01:27:53;5.10;99.90
7155;DHT22;3619;53.784;10.440;2024-03-23T01:30:22;5.10;99.90
7155;DHT22;3619;53.784;10.440;2024-03-23T01:32:49;5.10;99.90
7155;DHT22;3619;53.784;10.440;2024-03-23T01:35:15;5.10;99.90
7155;DHT22;3619;53.784;10.440;2024-03-23T01:37:41;5.10;99.90
7155;DHT22;3619;53.784;10.440;2024-03-23T01:40:09;5.10;99.90
7155;DHT22;3619;53.784;10.440;2024-03-23T01:42:41;5.10;99.90
7155;DHT22;3619;53.784;10.440;2024-03-23T01:45:10;5.00;99.90
7155;DHT22;3619;53.784;10.440;2024-03-23T01:47:38;5.00;99.90
7155;DHT22;3619;53.784;10.440;2024-03-23T01:50:07;4.90;99.90
7155;DHT22;3619;53.784;10.440;2024-03-23T01:52:36;5.00;99.90
7155;DHT22;3619;53.784;10.440;2024-03-23T01:55:03;5.00;99.90
7155;DHT22;3619;53.784;10.440;2024-03-23T01:57:31;5.00;99.90
7155;DHT22;3619;53.784;10.440;2024-03-23T01:59:57;5.00;99.90
7155;DHT22;3619;53.784;10.440;2024-03-23T02:02:26;4.90;99.90
7155;DHT22;3619;53.784;10.440;2024-03-23T02:04:52;4.90;99.90
7155;DHT22;3619;53.784;10.440;2024-03-23T02:07:18;4.90;99.90
7155;DHT22;3619;53.784;10.440;2024-03-23T02:09:44;4.80;99.90
7155;DHT22;3619;53.784;10.440;2024-03-23T02:12:12;4.80;99.90
7155;DHT22;3619;53.784;10.440;2024-03-23T02:14:37;4.80;99.90
7155;DHT22;3619;53.784;10.440;2024-03-23T02:17:04;4.70;99.90
7155;DHT22;3619;53.784;10.440;2024-03-23T02:19:32;4.70;99.90
7155;DHT22;3619;53.784;10.440;2024-03-23T02:21:59;4.70;99.90
7155;DHT22;3619;53.784;10.440;2024-03-23T02:24:33;4.70;99.90
7155;DHT22;3619;53.784;10.440;2024-03-23T02:27:01;4.60;99.90
7155;DHT22;3619;53.784;10.440;2024-03-23T02:29:27;4.60;99.90
7155;DHT22;3619;53.784;10.440;2024-03-23T02:31:54;4.50;99.90
7155;DHT22;3619;53.784;10.440;2024-03-23T02:34:20;4.50;99.90
7155;DHT22;3619;53.784;10.440;2024-03-23T02:36:47;4.50;99.90
7155;DHT22;3619;53.784;10.440;2024-03-23T02:39:13;4.40;99.90
7155;DHT22;3619;53.784;10.440;2024-03-23T02:41:42;4.40;99.90
7155;DHT22;3619;53.784;10.440;2024-03-23T02:44:09;4.40;99.90
7155;DHT22;3619;53.784;10.440;2024-03-23T02:46:40;4.40;99.90
7155;DHT22;3619;53.784;10.440;2024-03-23T02:49:09;4.30;99.90
7155;DHT22;3619;53.784;10.440;2024-03-23T02:51:37;4.40;99.90
7155;DHT22;3619;53.784;10.440;2024-03-23T02:54:03;4.40;99.90
7155;DHT22;3619;53.784;10.440;2024-03-23T02:56:32;4.30;99.90
7155;DHT22;3619;53.784;10.440;2024-03-23T02:59:00;4.20;99.90
7155;DHT22;3619;53.784;10.440;2024-03-23T03:01:28;4.20;99.90
7155;DHT22;3619;53.784;10.440;2024-03-23T03:03:54;4.10;99.90
7155;DHT22;3619;53.784;10.440;2024-03-23T03:06:24;4.00;99.90
7155;DHT22;3619;53.784;10.440;2024-03-23T03:08:51;4.10;99.90
7155;DHT22;3619;53.784;10.440;2024-03-23T03:11:21;4.10;99.90
7155;DHT22;3619;53.784;10.440;2024-03-23T03:13:47;4.20;99.90
7155;DHT22;3619;53.784;10.440;2024-03-23T03:16:18;4.20;99.90
7155;DHT22;3619;53.784;10.440;2024-03-23T03:18:45;4.10;99.90
7155;DHT22;3619;53.784;10.440;2024-03-23T03:21:13;4.20;99.90
7155;DHT22;3619;53.784;10.440;2024-03-23T03:23:44;4.10;99.90
7155;DHT22;3619;53.784;10.440;2024-03-23T03:26:14;4.00;99.90
7155;DHT22;3619;53.784;10.440;2024-03-23T03:28:41;4.10;99.90
7155;DHT22;3619;53.784;10.440;2024-03-23T03:31:09;4.20;99.90
7155;DHT22;3619;53.784;10.440;2024-03-23T03:33:38;4.20;99.90
7155;DHT22;3619;53.784;10.440;2024-03-23T03:36:23;4.20;99.90
7155;DHT22;3619;53.784;10.440;2024-03-23T03:38:50;4.20;99.90
7155;DHT22;3619;53.784;10.440;2024-03-23T03:41:18;4.20;99.90
7155;DHT22;3619;53.784;10.440;2024-03-23T03:43:45;4.20;99.90
7155;DHT22;3619;53.784;10.440;2024-03-23T03:46:14;4.30;99.90
7155;DHT22;3619;53.784;10.440;2024-03-23T03:48:46;4.30;99.90
7155;DHT22;3619;53.784;10.440;2024-03-23T03:51:19;4.20;99.90
7155;DHT22;3619;53.784;10.440;2024-03-23T03:53:47;4.20;99.90
7155;DHT22;3619;53.784;10.440;2024-03-23T03:56:17;4.20;99.90
7155;DHT22;3619;53.784;10.440;2024-03-23T03:58:47;4.30;99.90
7155;DHT22;3619;53.784;10.440;2024-03-23T04:01:17;4.30;99.90
7155;DHT22;3619;53.784;10.440;2024-03-23T04:03:45;4.30;99.90
7155;DHT22;3619;53.784;10.440;2024-03-23T04:06:19;4.30;99.90
7155;DHT22;3619;53.784;10.440;2024-03-23T04:08:45;4.40;99.90
7155;DHT22;3619;53.784;10.440;2024-03-23T04:11:14;4.30;99.90
7155;DHT22;3619;53.784;10.440;2024-03-23T04:13:42;4.30;99.90
7155;DHT22;3619;53.784;10.440;2024-03-23T04:16:10;4.30;99.90
7155;DHT22;3619;53.784;10.440;2024-03-23T04:18:36;4.30;99.90
7155;DHT22;3619;53.784;10.440;2024-03-23T04:21:05;4.30;99.90
7155;DHT22;3619;53.784;10.440;2024-03-23T04:23:33;4.30;99.90
7155;DHT22;3619;53.784;10.440;2024-03-23T04:26:03;4.30;99.90
7155;DHT22;3619;53.784;10.440;2024-03-23T04:28:29;4.30;99.90
7155;DHT22;3619;53.784;10.440;2024-03-23T04:30:56;4.30;99.90
7155;DHT22;3619;53.784;10.440;2024-03-23T04:33:25;4.30;99.90
7155;DHT22;3619;53.784;10.440;2024-03-23T04:36:00;4.30;99.90
7155;DHT22;3619;53.784;10.440;2024-03-23T04:38:35;4.30;99.90
7155;DHT22;3619;53.784;10.440;2024-03-23T04:41:03;4.20;99.90
7155;DHT22;3619;53.784;10.440;2024-03-23T04:43:33;4.10;99.90
7155;DHT22;3619;53.784;10.440;2024-03-23T04:46:01;4.00;99.90
7155;DHT22;3619;53.784;10.440;2024-03-23T04:48:28;4.00;99.90
7155;DHT22;3619;53.784;10.440;2024-03-23T04:50:57;4.00;99.90
7155;DHT22;3619;53.784;10.440;2024-03-23T04:53:24;4.00;99.90
7155;DHT22;3619;53.784;10.440;2024-03-23T04:55:55;4.00;99.90
7155;DHT22;3619;53.784;10.440;2024-03-23T04:58:22;4.10;99.90
7155;DHT22;3619;53.784;10.440;2024-03-23T05:00:52;4.10;99.90
7155;DHT22;3619;53.784;10.440;2024-03-23T05:03:23;4.10;99.90
7155;DHT22;3619;53.784;10.440;2024-03-23T05:05:51;4.20;99.90
7155;DHT22;3619;53.784;10.440;2024-03-23T05:08:17;4.20;99.90
7155;DHT22;3619;53.784;10.440;2024-03-23T05:10:46;4.10;99.90
7155;DHT22;3619;53.784;10.440;2024-03-23T05:13:17;4.20;99.90
7155;DHT22;3619;53.784;10.440;2024-03-23T05:15:44;4.20;99.90
7155;DHT22;3619;53.784;10.440;2024-03-23T05:18:13;4.20;99.90
7155;DHT22;3619;53.784;10.440;2024-03-23T05:20:40;4.20;99.90
7155;DHT22;3619;53.784;10.440;2024-03-23T05:23:06;4.20;99.90
7155;DHT22;3619;53.784;10.440;2024-03-23T05:25:33;4.20;99.90
7155;DHT22;3619;53.784;10.440;2024-03-23T05:28:00;4.30;99.90
7155;DHT22;3619;53.784;10.440;2024-03-23T05:30:37;4.40;99.90
7155;DHT22;3619;53.784;10.440;2024-03-23T05:33:04;4.40;99.90
7155;DHT22;3619;53.784;10.440;2024-03-23T05:35:32;4.50;99.90
7155;DHT22;3619;53.784;10.440;2024-03-23T05:37:58;4.60;99.90
7155;DHT22;3619;53.784;10.440;2024-03-23T05:40:25;4.60;99.90
7155;DHT22;3619;53.784;10.440;2024-03-23T05:42:53;4.70;99.90
7155;DHT22;3619;53.784;10.440;2024-03-23T05:45:21;4.70;99.90
7155;DHT22;3619;53.784;10.440;2024-03-23T05:47:49;4.80;99.90
7155;DHT22;3619;53.784;10.440;2024-03-23T05:50:16;4.90;99.90
7155;DHT22;3619;53.784;10.440;2024-03-23T05:52:43;4.90;99.90
7155;DHT22;3619;53.784;10.440;2024-03-23T05:55:10;4.90;99.90
7155;DHT22;3619;53.784;10.440;2024-03-23T05:57:36;5.00;99.90
7155;DHT22;3619;53.784;10.440;2024-03-23T06:00:03;5.10;99.90
7155;DHT22;3619;53.784;10.440;2024-03-23T06:02:34;5.10;99.90
7155;DHT22;3619;53.784;10.440;2024-03-23T06:05:04;5.20;99.90
7155;DHT22;3619;53.784;10.440;2024-03-23T06:07:32;5.20;99.90
7155;DHT22;3619;53.784;10.440;2024-03-23T06:10:00;5.20;99.90
7155;DHT22;3619;53.784;10.440;2024-03-23T06:12:29;5.30;99.90
7155;DHT22;3619;53.784;10.440;2024-03-23T06:14:58;5.30;99.90
7155;DHT22;3619;53.784;10.440;2024-03-23T06:17:24;5.40;99.90
7155;DHT22;3619;53.784;10.440;2024-03-23T06:19:51;5.40;99.90
7155;DHT22;3619;53.784;10.440;2024-03-23T06:22:23;5.50;99.90
7155;DHT22;3619;53.784;10.440;2024-03-23T06:24:51;5.60;99.90
7155;DHT22;3619;53.784;10.440;2024-03-23T06:27:18;5.70;99.90
7155;DHT22;3619;53.784;10.440;2024-03-23T06:29:45;5.70;99.90
7155;DHT22;3619;53.784;10.440;2024-03-23T06:32:10;5.80;99.90
7155;DHT22;3619;53.784;10.440;2024-03-23T06:34:37;5.90;99.90
7155;DHT22;3619;53.784;10.440;2024-03-23T06:37:04;6.00;99.90
7155;DHT22;3619;53.784;10.440;2024-03-23T06:39:32;6.20;99.90
7155;DHT22;3619;53.784;10.440;2024-03-23T06:41:59;6.40;99.90
7155;DHT22;3619;53.784;10.440;2024-03-23T06:44:24;6.50;99.90
7155;DHT22;3619;53.784;10.440;2024-03-23T06:46:51;6.60;99.90
7155;DHT22;3619;53.784;10.440;2024-03-23T06:49:17;6.60;99.90
7155;DHT22;3619;53.784;10.440;2024-03-23T06:51:45;6.70;99.90
7155;DHT22;3619;53.784;10.440;2024-03-23T06:54:11;6.80;99.90
7155;DHT22;3619;53.784;10.440;2024-03-23T06:56:39;6.80;99.90
7155;DHT22;3619;53.784;10.440;2024-03-23T06:59:06;7.00;99.90
7155;DHT22;3619;53.784;10.440;2024-03-23T07:01:33;7.00;99.90
7155;DHT22;3619;53.784;10.440;2024-03-23T07:04:00;7.10;99.90
7155;DHT22;3619;53.784;10.440;2024-03-23T07:06:33;7.20;99.90
7155;DHT22;3619;53.784;10.440;2024-03-23T07:09:00;7.40;99.90
7155;DHT22;3619;53.784;10.440;2024-03-23T07:11:29;7.40;99.90
7155;DHT22;3619;53.784;10.440;2024-03-23T07:13:59;7.40;99.90
7155;DHT22;3619;53.784;10.440;2024-03-23T07:16:27;7.50;99.90
7155;DHT22;3619;53.784;10.440;2024-03-23T07:18:52;7.60;99.90
7155;DHT22;3619;53.784;10.440;2024-03-23T07:21:19;7.50;99.90
7155;DHT22;3619;53.784;10.440;2024-03-23T07:23:46;7.50;99.90
7155;DHT22;3619;53.784;10.440;2024-03-23T07:26:12;7.50;99.90
7155;DHT22;3619;53.784;10.440;2024-03-23T07:28:39;7.40;99.90
7155;DHT22;3619;53.784;10.440;2024-03-23T07:31:12;7.20;99.90
7155;DHT22;3619;53.784;10.440;2024-03-23T07:33:42;7.30;99.90
7155;DHT22;3619;53.784;10.440;2024-03-23T07:36:08;7.30;99.90
7155;DHT22;3619;53.784;10.440;2024-03-23T07:38:35;7.30;99.90
7155;DHT22;3619;53.784;10.440;2024-03-23T07:41:05;7.30;99.90
7155;DHT22;3619;53.784;10.440;2024-03-23T07:43:32;7.40;99.90
7155;DHT22;3619;53.784;10.440;2024-03-23T07:45:58;7.40;99.90
7155;DHT22;3619;53.784;10.440;2024-03-23T07:48:27;7.40;99.90
7155;DHT22;3619;53.784;10.440;2024-03-23T07:51:00;7.50;99.90
7155;DHT22;3619;53.784;10.440;2024-03-23T07:53:27;7.90;99.90
7155;DHT22;3619;53.784;10.440;2024-03-23T07:55:57;8.10;99.90
7155;DHT22;3619;53.784;10.440;2024-03-23T07:58:25;8.10;99.90
7155;DHT22;3619;53.784;10.440;2024-03-23T08:00:51;8.10;99.90
7155;DHT22;3619;53.784;10.440;2024-03-23T08:03:22;8.20;99.90
7155;DHT22;3619;53.784;10.440;2024-03-23T08:05:54;8.20;99.90
7155;DHT22;3619;53.784;10.440;2024-03-23T08:08:25;8.30;99.90
7155;DHT22;3619;53.784;10.440;2024-03-23T08:11:00;8.50;99.90
7155;DHT22;3619;53.784;10.440;2024-03-23T08:13:29;8.60;99.90
7155;DHT22;3619;53.784;10.440;2024-03-23T08:15:59;8.60;99.90
7155;DHT22;3619;53.784;10.440;2024-03-23T08:18:30;8.80;99.90
7155;DHT22;3619;53.784;10.440;2024-03-23T08:20:58;8.80;99.90
7155;DHT22;3619;53.784;10.440;2024-03-23T08:23:26;8.90;99.90
7155;DHT22;3619;53.784;10.440;2024-03-23T08:25:52;9.20;99.90
7155;DHT22;3619;53.784;10.440;2024-03-23T08:28:23;9.40;99.90
7155;DHT22;3619;53.784;10.440;2024-03-23T08:30:49;9.50;99.90
7155;DHT22;3619;53.784;10.440;2024-03-23T08:33:16;9.50;99.90
7155;DHT22;3619;53.784;10.440;2024-03-23T08:35:42;9.40;99.90
7155;DHT22;3619;53.784;10.440;2024-03-23T08:38:10;9.20;99.90
7155;DHT22;3619;53.784;10.440;2024-03-23T08:40:36;9.10;99.90
7155;DHT22;3619;53.784;10.440;2024-03-23T08:43:04;9.00;99.90
7155;DHT22;3619;53.784;10.440;2024-03-23T08:45:29;9.30;99.90
7155;DHT22;3619;53.784;10.440;2024-03-23T08:47:56;9.70;99.90
7155;DHT22;3619;53.784;10.440;2024-03-23T08:50:22;10.30;99.90
7155;DHT22;3619;53.784;10.440;2024-03-23T08:52:51;10.40;99.90
7155;DHT22;3619;53.784;10.440;2024-03-23T08:55:18;10.60;99.90
7155;DHT22;3619;53.784;10.440;2024-03-23T08:57:45;10.80;99.90
7155;DHT22;3619;53.784;10.440;2024-03-23T09:00:12;11.10;99.90
7155;DHT22;3619;53.784;10.440;2024-03-23T09:02:41;11.30;99.90
7155;DHT22;3619;53.784;10.440;2024-03-23T09:05:07;11.40;99.90
7155;DHT22;3619;53.784;10.440;2024-03-23T09:07:34;11.40;99.90
7155;DHT22;3619;53.784;10.440;2024-03-23T09:10:02;11.10;99.90
7155;DHT22;3619;53.784;10.440;2024-03-23T09:12:30;11.00;99.90
7155;DHT22;3619;53.784;10.440;2024-03-23T09:14:56;11.10;99.90
7155;DHT22;3619;53.784;10.440;2024-03-23T09:17:23;11.70;99.90
7155;DHT22;3619;53.784;10.440;2024-03-23T09:19:49;12.70;99.90
7155;DHT22;3619;53.784;10.440;2024-03-23T09:22:16;14.20;99.90
7155;DHT22;3619;53.784;10.440;2024-03-23T09:24:42;14.60;99.90
7155;DHT22;3619;53.784;10.440;2024-03-23T09:27:08;13.90;99.90
7155;DHT22;3619;53.784;10.440;2024-03-23T09:29:36;13.00;99.90
7155;DHT22;3619;53.784;10.440;2024-03-23T09:32:04;12.40;99.90
7155;DHT22;3619;53.784;10.440;2024-03-23T09:34:30;12.40;99.90
7155;DHT22;3619;53.784;10.440;2024-03-23T09:36:57;12.70;99.90
7155;DHT22;3619;53.784;10.440;2024-03-23T09:39:23;12.30;99.90
7155;DHT22;3619;53.784;10.440;2024-03-23T09:41:49;11.80;99.90
7155;DHT22;3619;53.784;10.440;2024-03-23T09:44:16;11.30;99.90
7155;DHT22;3619;53.784;10.440;2024-03-23T09:46:44;11.50;99.90
7155;DHT22;3619;53.784;10.440;2024-03-23T09:49:10;13.50;99.90
7155;DHT22;3619;53.784;10.440;2024-03-23T09:51:37;15.10;99.90
7155;DHT22;3619;53.784;10.440;2024-03-23T09:54:03;16.40;99.90
7155;DHT22;3619;53.784;10.440;2024-03-23T09:56:30;17.30;99.90
7155;DHT22;3619;53.784;10.440;2024-03-23T09:59:02;16.80;99.90
7155;DHT22;3619;53.784;10.440;2024-03-23T10:01:31;15.40;99.90
7155;DHT22;3619;53.784;10.440;2024-03-23T10:04:09;14.30;99.90
7155;DHT22;3619;53.784;10.440;2024-03-23T10:06:38;14.00;99.90
7155;DHT22;3619;53.784;10.440;2024-03-23T10:09:41;13.90;99.90
7155;DHT22;3619;53.784;10.440;2024-03-23T10:12:10;13.30;99.90
7155;DHT22;3619;53.784;10.440;2024-03-23T10:14:37;12.60;99.90
7155;DHT22;3619;53.784;10.440;2024-03-23T10:17:12;12.70;99.90
7155;DHT22;3619;53.784;10.440;2024-03-23T10:19:41;12.90;99.90
7155;DHT22;3619;53.784;10.440;2024-03-23T10:22:10;12.90;99.90
7155;DHT22;3619;53.784;10.440;2024-03-23T10:24:36;12.60;99.90
7155;DHT22;3619;53.784;10.440;2024-03-23T10:27:03;12.40;99.90
7155;DHT22;3619;53.784;10.440;2024-03-23T10:29:29;12.00;99.90
7155;DHT22;3619;53.784;10.440;2024-03-23T10:32:08;11.60;99.90
7155;DHT22;3619;53.784;10.440;2024-03-23T10:34:34;11.10;99.90
7155;DHT22;3619;53.784;10.440;2024-03-23T10:37:04;11.10;99.90
7155;DHT22;3619;53.784;10.440;2024-03-23T10:39:32;10.80;99.90
7155;DHT22;3619;53.784;10.440;2024-03-23T10:42:02;10.70;99.90
7155;DHT22;3619;53.784;10.440;2024-03-23T10:44:29;10.60;99.90
7155;DHT22;3619;53.784;10.440;2024-03-23T10:46:57;10.60;99.90
7155;DHT22;3619;53.784;10.440;2024-03-23T10:49:26;10.60;99.90
7155;DHT22;3619;53.784;10.440;2024-03-23T10:51:59;10.60;99.90
7155;DHT22;3619;53.784;10.440;2024-03-23T10:54:27;10.50;99.90
7155;DHT22;3619;53.784;10.440;2024-03-23T10:57:02;10.30;99.90
7155;DHT22;3619;53.784;10.440;2024-03-23T10:59:31;10.20;99.90
7155;DHT22;3619;53.784;10.440;2024-03-23T11:01:59;10.10;99.90
7155;DHT22;3619;53.784;10.440;2024-03-23T11:04:32;9.90;99.90
7155;DHT22;3619;53.784;10.440;2024-03-23T11:06:59;9.80;99.90
7155;DHT22;3619;53.784;10.440;2024-03-23T11:09:47;9.70;99.90
7155;DHT22;3619;53.784;10.440;2024-03-23T11:12:29;9.50;99.90
7155;DHT22;3619;53.784;10.440;2024-03-23T11:15:01;9.10;99.90
7155;DHT22;3619;53.784;10.440;2024-03-23T11:17:29;8.90;99.90
7155;DHT22;3619;53.784;10.440;2024-03-23T11:19:56;9.00;99.90
7155;DHT22;3619;53.784;10.440;2024-03-23T11:22:42;9.10;99.90
7155;DHT22;3619;53.784;10.440;2024-03-23T11:25:17;9.30;99.90
7155;DHT22;3619;53.784;10.440;2024-03-23T11:27:47;9.40;99.90
7155;DHT22;3619;53.784;10.440;2024-03-23T11:30:15;9.50;99.90
7155;DHT22;3619;53.784;10.440;2024-03-23T11:32:43;9.70;99.90
7155;DHT22;3619;53.784;10.440;2024-03-23T11:35:09;9.60;99.90
7155;DHT22;3619;53.784;10.440;2024-03-23T11:37:37;9.60;99.90
7155;DHT22;3619;53.784;10.440;2024-03-23T11:40:21;9.70;99.90
7155;DHT22;3619;53.784;10.440;2024-03-23T11:42:55;9.60;99.90
7155;DHT22;3619;53.784;10.440;2024-03-23T11:45:21;9.60;99.90
7155;DHT22;3619;53.784;10.440;2024-03-23T11:47:48;9.60;99.90
7155;DHT22;3619;53.784;10.440;2024-03-23T11:50:20;9.60;99.90
7155;DHT22;3619;53.784;10.440;2024-03-23T11:52:47;9.50;99.90
7155;DHT22;3619;53.784;10.440;2024-03-23T11:55:12;9.70;99.90
7155;DHT22;3619;53.784;10.440;2024-03-23T11:57:41;10.00;99.90
7155;DHT22;3619;53.784;10.440;2024-03-23T12:00:21;10.00;99.90
7155;DHT22;3619;53.784;10.440;2024-03-23T12:02:48;9.60;99.90
7155;DHT22;3619;53.784;10.440;2024-03-23T12:05:15;9.20;99.90
7155;DHT22;3619;53.784;10.440;2024-03-23T12:07:42;9.30;99.90
7155;DHT22;3619;53.784;10.440;2024-03-23T12:10:08;9.50;99.90
7155;DHT22;3619;53.784;10.440;2024-03-23T12:12:35;9.60;99.90
7155;DHT22;3619;53.784;10.440;2024-03-23T12:15:04;9.90;99.90
7155;DHT22;3619;53.784;10.440;2024-03-23T12:17:32;10.00;99.90
7155;DHT22;3619;53.784;10.440;2024-03-23T12:19:58;9.90;99.90
7155;DHT22;3619;53.784;10.440;2024-03-23T12:22:25;9.70;99.90
7155;DHT22;3619;53.784;10.440;2024-03-23T12:24:51;9.60;99.90
7155;DHT22;3619;53.784;10.440;2024-03-23T12:27:18;9.20;99.90
7155;DHT22;3619;53.784;10.440;2024-03-23T12:29:44;9.00;99.90
7155;DHT22;3619;53.784;10.440;2024-03-23T12:32:14;8.90;99.90
7155;DHT22;3619;53.784;10.440;2024-03-23T12:34:40;8.60;99.90
7155;DHT22;3619;53.784;10.440;2024-03-23T12:37:08;8.30;99.90
7155;DHT22;3619;53.784;10.440;2024-03-23T12:39:34;8.00;99.90
7155;DHT22;3619;53.784;10.440;2024-03-23T12:42:02;7.70;99.90
7155;DHT22;3619;53.784;10.440;2024-03-23T12:44:28;7.50;99.90
7155;DHT22;3619;53.784;10.440;2024-03-23T12:46:55;7.30;99.90
7155;DHT22;3619;53.784;10.440;2024-03-23T12:49:22;7.20;99.90
7155;DHT22;3619;53.784;10.440;2024-03-23T12:51:54;7.10;99.90
7155;DHT22;3619;53.784;10.440;2024-03-23T12:54:20;7.20;99.90
7155;DHT22;3619;53.784;10.440;2024-03-23T12:56:47;7.30;99.90
7155;DHT22;3619;53.784;10.440;2024-03-23T12:59:13;7.50;99.90
7155;DHT22;3619;53.784;10.440;2024-03-23T13:01:40;7.70;99.90
7155;DHT22;3619;53.784;10.440;2024-03-23T13:04:06;8.00;99.90
7155;DHT22;3619;53.784;10.440;2024-03-23T13:06:35;8.30;99.90
7155;DHT22;3619;53.784;10.440;2024-03-23T13:09:01;8.60;99.90
7155;DHT22;3619;53.784;10.440;2024-03-23T13:11:28;8.90;99.90
7155;DHT22;3619;53.784;10.440;2024-03-23T13:13:54;9.10;99.90
7155;DHT22;3619;53.784;10.440;2024-03-23T13:16:22;9.20;99.90
7155;DHT22;3619;53.784;10.440;2024-03-23T13:18:48;9.20;99.90
7155;DHT22;3619;53.784;10.440;2024-03-23T13:21:15;9.00;99.90
7155;DHT22;3619;53.784;10.440;2024-03-23T13:23:46;8.80;99.90
7155;DHT22;3619;53.784;10.440;2024-03-23T13:26:13;8.70;99.90
7155;DHT22;3619;53.784;10.440;2024-03-23T13:28:39;8.80;99.90
7155;DHT22;3619;53.784;10.440;2024-03-23T13:31:07;8.70;99.90
7155;DHT22;3619;53.784;10.440;2024-03-23T13:33:34;8.80;99.90
7155;DHT22;3619;53.784;10.440;2024-03-23T13:36:02;8.80;99.90
7155;DHT22;3619;53.784;10.440;2024-03-23T13:38:28;8.80;99.90
7155;DHT22;3619;53.784;10.440;2024-03-23T13:40:57;8.80;99.90
7155;DHT22;3619;53.784;10.440;2024-03-23T13:43:24;8.90;99.90
7155;DHT22;3619;53.784;10.440;2024-03-23T13:45:53;8.80;99.90
7155;DHT22;3619;53.784;10.440;2024-03-23T13:48:20;8.80;99.90
7155;DHT22;3619;53.784;10.440;2024-03-23T13:50:47;8.80;99.90
7155;DHT22;3619;53.784;10.440;2024-03-23T13:53:22;8.70;99.90
7155;DHT22;3619;53.784;10.440;2024-03-23T13:55:50;8.40;99.90
7155;DHT22;3619;53.784;10.440;2024-03-23T13:58:18;8.10;99.90
7155;DHT22;3619;53.784;10.440;2024-03-23T14:00:45;7.50;99.90
7155;DHT22;3619;53.784;10.440;2024-03-23T14:03:11;7.00;99.90
7155;DHT22;3619;53.784;10.440;2024-03-23T14:05:38;6.70;99.90
7155;DHT22;3619;53.784;10.440;2024-03-23T14:08:04;6.70;99.90
7155;DHT22;3619;53.784;10.440;2024-03-23T14:10:31;6.40;99.90
7155;DHT22;3619;53.784;10.440;2024-03-23T14:12:58;6.50;99.90
7155;DHT22;3619;53.784;10.440;2024-03-23T14:15:26;6.60;99.90
7155;DHT22;3619;53.784;10.440;2024-03-23T14:17:52;6.80;99.90
7155;DHT22;3619;53.784;10.440;2024-03-23T14:20:21;6.90;99.90
7155;DHT22;3619;53.784;10.440;2024-03-23T14:22:47;7.10;99.90
7155;DHT22;3619;53.784;10.440;2024-03-23T14:25:13;7.20;99.90
7155;DHT22;3619;53.784;10.440;2024-03-23T14:27:39;7.20;99.90
7155;DHT22;3619;53.784;10.440;2024-03-23T14:30:07;7.20;99.90
7155;DHT22;3619;53.784;10.440;2024-03-23T14:32:35;7.20;99.90
7155;DHT22;3619;53.784;10.440;2024-03-23T14:35:03;7.20;99.90
7155;DHT22;3619;53.784;10.440;2024-03-23T14:37:30;7.20;99.90
7155;DHT22;3619;53.784;10.440;2024-03-23T14:39:57;7.20;99.90
7155;DHT22;3619;53.784;10.440;2024-03-23T14:42:24;7.20;99.90
7155;DHT22;3619;53.784;10.440;2024-03-23T14:44:50;7.30;99.90
7155;DHT22;3619;53.784;10.440;2024-03-23T14:47:18;7.30;99.90
7155;DHT22;3619;53.784;10.440;2024-03-23T14:49:45;7.30;99.90
7155;DHT22;3619;53.784;10.440;2024-03-23T14:52:13;7.50;99.90
7155;DHT22;3619;53.784;10.440;2024-03-23T14:54:38;7.80;99.90
7155;DHT22;3619;53.784;10.440;2024-03-23T14:57:06;8.00;99.90
7155;DHT22;3619;53.784;10.440;2024-03-23T14:59:32;8.10;99.90
7155;DHT22;3619;53.784;10.440;2024-03-23T15:01:59;7.90;99.90
7155;DHT22;3619;53.784;10.440;2024-03-23T15:04:25;7.70;99.90
7155;DHT22;3619;53.784;10.440;2024-03-23T15:06:53;7.50;99.90
7155;DHT22;3619;53.784;10.440;2024-03-23T15:09:19;7.40;99.90
7155;DHT22;3619;53.784;10.440;2024-03-23T15:11:46;7.50;99.90
7155;DHT22;3619;53.784;10.440;2024-03-23T15:14:12;7.60;99.90
7155;DHT22;3619;53.784;10.440;2024-03-23T15:16:39;7.90;99.90
7155;DHT22;3619;53.784;10.440;2024-03-23T15:19:04;8.10;99.90
7155;DHT22;3619;53.784;10.440;2024-03-23T15:21:32;8.30;99.90
7155;DHT22;3619;53.784;10.440;2024-03-23T15:23:59;8.40;99.90
7155;DHT22;3619;53.784;10.440;2024-03-23T15:26:26;8.30;99.90
7155;DHT22;3619;53.784;10.440;2024-03-23T15:28:52;8.20;99.90
7155;DHT22;3619;53.784;10.440;2024-03-23T15:31:36;8.20;99.90
7155;DHT22;3619;53.784;10.440;2024-03-23T15:34:02;8.30;99.90
7155;DHT22;3619;53.784;10.440;2024-03-23T15:36:29;8.30;99.90
7155;DHT22;3619;53.784;10.440;2024-03-23T15:38:55;8.40;99.90
7155;DHT22;3619;53.784;10.440;2024-03-23T15:41:24;8.40;99.90
7155;DHT22;3619;53.784;10.440;2024-03-23T15:43:50;8.40;99.90
7155;DHT22;3619;53.784;10.440;2024-03-23T15:46:17;8.50;99.90
7155;DHT22;3619;53.784;10.440;2024-03-23T15:48:44;8.40;99.90
7155;DHT22;3619;53.784;10.440;2024-03-23T15:51:14;8.30;99.90
7155;DHT22;3619;53.784;10.440;2024-03-23T15:53:40;8.20;99.90
7155;DHT22;3619;53.784;10.440;2024-03-23T15:56:07;8.00;99.90
7155;DHT22;3619;53.784;10.440;2024-03-23T15:58:34;7.90;99.90
7155;DHT22;3619;53.784;10.440;2024-03-23T16:01:02;7.80;99.90
7155;DHT22;3619;53.784;10.440;2024-03-23T16:03:32;7.80;99.90
7155;DHT22;3619;53.784;10.440;2024-03-23T16:06:00;7.80;99.90
7155;DHT22;3619;53.784;10.440;2024-03-23T16:08:26;7.80;99.90
7155;DHT22;3619;53.784;10.440;2024-03-23T16:10:53;7.60;99.90
7155;DHT22;3619;53.784;10.440;2024-03-23T16:13:20;7.60;99.90
7155;DHT22;3619;53.784;10.440;2024-03-23T16:15:56;7.60;99.90
7155;DHT22;3619;53.784;10.440;2024-03-23T16:18:22;7.70;99.90
7155;DHT22;3619;53.784;10.440;2024-03-23T16:20:53;7.70;99.90
7155;DHT22;3619;53.784;10.440;2024-03-23T16:23:19;7.50;99.90
7155;DHT22;3619;53.784;10.440;2024-03-23T16:25:47;7.40;99.90
7155;DHT22;3619;53.784;10.440;2024-03-23T16:28:22;7.30;99.90
7155;DHT22;3619;53.784;10.440;2024-03-23T16:30:55;7.20;99.90
7155;DHT22;3619;53.784;10.440;2024-03-23T16:33:21;7.10;99.90
7155;DHT22;3619;53.784;10.440;2024-03-23T16:35:58;7.00;99.90
7155;DHT22;3619;53.784;10.440;2024-03-23T16:38:24;6.80;99.90
7155;DHT22;3619;53.784;10.440;2024-03-23T16:40:58;6.60;99.90
7155;DHT22;3619;53.784;10.440;2024-03-23T16:43:24;6.50;99.90
7155;DHT22;3619;53.784;10.440;2024-03-23T16:45:57;6.30;99.90
7155;DHT22;3619;53.784;10.440;2024-03-23T16:48:24;6.10;99.90
7155;DHT22;3619;53.784;10.440;2024-03-23T16:50:51;5.90;99.90
7155;DHT22;3619;53.784;10.440;2024-03-23T16:53:17;5.70;99.90
7155;DHT22;3619;53.784;10.440;2024-03-23T16:55:44;5.50;99.90
7155;DHT22;3619;53.784;10.440;2024-03-23T16:58:10;5.40;99.90
7155;DHT22;3619;53.784;10.440;2024-03-23T17:00:37;5.40;99.90